Aeroporto :
LOGIN :

Iscrizione | Disclaimer

   EN    FR    IT 

 










Sommario :    VFR   VFR Marginale   IFR   IFR Intensivo   IFR Molto Intensivo
Visibilità : 
Base nubi : 
>= 8 km
>= 3000ft
5 / 8 km
1000 / 3000 ft
1500m / 5 km
500 / 1000 ft
800 / 1500m
200 / 500 ft
< 800m
< 200 ft
Simboli :   Temporali  Nebbia  Neve Forte  Precipitazioni Forti  Vento > 20 kt
SIGMETs :   Varie  Temporali  Ghiacco  Turbolenza  Onda orograficha  Ceneri Vulcaniche






- Altitudine del aeroporto : 580 ft


LFOA - Avord

ULTIMO METAR :
  • 260900Z AUTO 29014KT 9999 BKN016 BKN021 BKN100 11/07 Q1011

METARs OBSOLETI :
  • 260830Z AUTO 29013KT 9999 BKN015 OVC021 10/06 Q1011
  • 260800Z AUTO 28013KT 9999 BKN013 OVC130 09/07 Q1012
  • 260730Z AUTO 27012KT 9999 BKN012 OVC017 09/07 Q1012
  • 260700Z AUTO 26010KT 9999 OVC011 08/07 Q1012
  • 260630Z AUTO 26012KT 9999 FEW008 BKN012 BKN110 07/06 Q1012
  • 260600Z AUTO 26010KT 9999 BKN013 BKN078 BKN130 06/06 Q1012

TAF TAF LFOA
Valido dal 25 a 15 ore il 26 a 15 ore UTC


251400Z 2515/2615 28010G20KT 9999 BKN025 BKN040
TEMPO 2515/2520 28015G30KT 3000 SHRA SCT010 BKN040CB
PROB40 2515/2517 33020G35KT 1400 TSRA
PROB30
TEMPO 2603/2607 3000 BR BKN009
TEMPO 2607/2615 31015G30KT 4000 SHRA SCT010 BKN020CB



MetMap, La meteo Aeronautica in un colpo d'occhio ! - Copyright ORBIFLY Dicembre 2007 - Disclaimer

ORBIFLY MET'MAP TEAM :

Programmazione e sviluppo : Alexandra Zaïnal
Concezione : Baudouin d'Aumeries
Aiuto per la programmazione : Marc-Olivier Méhu
Supporto tecnico e logistico : Manuel Goepfert
Aiuto per la traduzione : Arnaldo La Scala

Contatto : metmap@orbifly.com




FONTI E CREDITI :

   NOAA